Time;durP1;ratioP1;P1;durP2;ratioP2;P2;SDS_P1;SDS_P2;PMS_P1;PMS_P2;Temp;Humidity;BMP_temperature;BMP_pressure;BME280_temperature;BME280_humidity;BME280_pressure;Samples;Min_cycle;Max_cycle;Signal;HPM_P1;HPM_P2
2021/06/05 00:08:17;;;;;;;7.05;3.47;;;;;;;18.33;99.38;100651.69;20554617;28;20062;-71
2021/06/05 00:18:20;;;;;;;8.77;3.77;;;;;;;18.36;98.62;100671.78;20576911;28;20104;-73
2021/06/05 00:28:22;;;;;;;8.80;3.38;;;;;;;18.33;97.71;100667.59;20575502;28;20050;-73
2021/06/05 00:38:24;;;;;;;11.10;3.47;;;;;;;18.18;97.27;100670.63;20918413;28;20045;-73
2021/06/05 00:48:26;;;;;;;8.40;3.30;;;;;;;18.09;98.73;100666.91;20997105;28;20048;-73
2021/06/05 00:58:29;;;;;;;5.95;2.20;;;;;;;18.04;96.38;100661.16;20995889;28;20049;-73
2021/06/05 01:08:48;;;;;;;4.53;2.47;;;;;;;18.10;96.18;100657.16;20629996;28;20405;-73
2021/06/05 01:18:58;;;;;;;5.50;2.53;;;;;;;18.00;96.71;100642.97;20573218;28;20059;-73
2021/06/05 01:29:06;;;;;;;4.35;2.30;;;;;;;17.98;97.11;100644.94;20572121;28;20059;-73
2021/06/05 01:39:11;;;;;;;4.22;2.13;;;;;;;17.88;95.86;100650.94;20940084;28;20044;-73
2021/06/05 01:49:13;;;;;;;8.43;2.60;;;;;;;17.87;97.10;100657.22;20992345;28;20047;-73
2021/06/05 01:59:16;;;;;;;5.55;2.47;;;;;;;17.69;97.51;100645.44;20990489;28;20040;-72
2021/06/05 02:09:22;;;;;;;5.88;2.47;;;;;;;17.79;98.20;100643.75;20982215;28;20122;-73
2021/06/05 02:19:33;;;;;;;7.15;2.53;;;;;;;17.72;98.89;100629.34;20990291;28;20110;-73
2021/06/05 02:29:39;;;;;;;6.35;2.95;;;;;;;17.59;99.58;100618.03;20989289;28;20045;-72
2021/06/05 02:39:42;;;;;;;7.93;3.17;;;;;;;17.51;99.41;100620.44;20556527;28;20071;-72
2021/06/05 02:49:44;;;;;;;6.40;2.70;;;;;;;17.17;100.00;100616.13;20488214;28;20099;-73
2021/06/05 02:59:46;;;;;;;7.03;3.20;;;;;;;17.15;100.00;100612.72;20487481;28;20101;-73
2021/06/05 03:09:48;;;;;;;7.20;2.85;;;;;;;17.05;100.00;100623.19;20934164;28;20119;-72
2021/06/05 03:19:49;;;;;;;8.05;2.92;;;;;;;16.96;100.00;100619.47;20986065;28;20106;-72
2021/06/05 03:29:51;;;;;;;8.45;3.25;;;;;;;16.91;100.00;100620.78;20984993;28;20060;-72
2021/06/05 03:39:53;;;;;;;6.15;3.05;;;;;;;16.83;100.00;100617.84;20974592;28;20044;-73
2021/06/05 03:49:55;;;;;;;6.07;3.00;;;;;;;16.78;100.00;100606.78;20995674;28;20049;-72
2021/06/05 03:59:57;;;;;;;5.40;2.88;;;;;;;16.84;100.00;100624.84;21001138;28;20486;-72
2021/06/05 04:09:59;;;;;;;6.18;3.20;;;;;;;16.90;100.00;100614.63;20571721;28;20046;-73
2021/06/05 04:20:04;;;;;;;9.25;4.10;;;;;;;17.07;100.00;100615.97;20577113;28;20454;-73
2021/06/05 04:30:09;;;;;;;7.00;3.40;;;;;;;17.40;100.00;100609.84;20577906;28;20051;-73
2021/06/05 04:40:12;;;;;;;7.03;3.35;;;;;;;19.86;84.88;100618.19;20998963;28;20090;-73
2021/06/05 04:50:18;;;;;;;4.95;3.05;;;;;;;19.99;82.47;100634.69;20996357;28;20049;-72
2021/06/05 05:00:32;;;;;;;7.85;3.80;;;;;;;19.19;87.58;100645.31;20995066;28;20449;-72
2021/06/05 05:10:36;;;;;;;6.77;3.10;;;;;;;19.40;87.44;100635.47;20954711;28;20045;-72
2021/06/05 05:20:39;;;;;;;;;;;;;;;18.96;90.10;100657.03;20913480;28;20045;-72
2021/06/05 05:30:44;;;;;;;5.78;3.10;;;;;;;18.76;93.21;100674.63;20924494;28;19921;-73
2021/06/05 05:40:47;;;;;;;8.43;3.55;;;;;;;18.77;93.68;100682.47;20955495;28;20045;-73
2021/06/05 05:50:48;;;;;;;6.45;3.40;;;;;;;18.65;94.67;100683.47;20993848;28;20059;-74
2021/06/05 06:00:51;;;;;;;8.00;3.20;;;;;;;18.57;95.85;100688.59;20960336;28;20104;-72
2021/06/05 06:10:54;;;;;;;7.07;3.70;;;;;;;18.58;95.58;100690.28;20561667;28;20105;-73
2021/06/05 06:20:56;;;;;;;6.57;3.58;;;;;;;18.61;96.42;100697.97;20546507;28;20048;-72
2021/06/05 06:30:59;;;;;;;6.40;3.33;;;;;;;18.92;94.74;100700.72;20526821;28;20052;-72
2021/06/05 06:41:06;;;;;;;9.98;3.97;;;;;;;19.10;93.78;100700.00;20948607;28;20040;-72
2021/06/05 06:51:11;;;;;;;6.03;3.03;;;;;;;19.53;91.38;100705.16;20987577;28;20410;-73
2021/06/05 07:01:14;;;;;;;7.97;3.30;;;;;;;19.80;88.70;100719.66;20919780;28;20055;-72
2021/06/05 07:11:22;;;;;;;7.18;3.40;;;;;;;20.07;86.92;100717.22;20518311;28;20412;-72
2021/06/05 07:21:24;;;;;;;6.03;3.08;;;;;;;20.27;84.46;100715.44;20549977;28;20493;-72
2021/06/05 07:31:33;;;;;;;6.35;2.95;;;;;;;20.41;82.38;100731.91;20543577;28;20045;-72
2021/06/05 07:41:36;;;;;;;7.10;3.38;;;;;;;20.94;80.18;100739.44;20923380;28;20099;-72
2021/06/05 07:51:38;;;;;;;7.25;3.55;;;;;;;21.20;78.76;100737.06;20902436;28;20053;-74
2021/06/05 08:01:39;;;;;;;7.40;3.63;;;;;;;21.46;78.22;100726.63;20900440;28;20049;-73
2021/06/05 08:11:41;;;;;;;6.40;3.10;;;;;;;21.17;78.09;100745.34;20950580;28;20044;-73
2021/06/05 08:21:45;;;;;;;8.57;3.58;;;;;;;20.90;80.58;100738.91;20983550;28;20053;-73
2021/06/05 08:31:49;;;;;;;8.07;4.27;;;;;;;21.56;79.91;100740.75;20914035;28;20057;-73
2021/06/05 08:41:55;;;;;;;7.22;3.70;;;;;;;22.34;74.41;100734.09;20569770;28;20050;-73
2021/06/05 08:52:05;;;;;;;5.05;3.00;;;;;;;21.98;72.65;100736.69;20578168;28;20484;-72
2021/06/05 09:02:07;;;;;;;5.80;3.30;;;;;;;22.36;72.56;100740.94;20669282;28;20053;-71
2021/06/05 09:12:11;;;;;;;5.10;2.67;;;;;;;21.99;72.08;100733.03;20991119;28;20048;-72
2021/06/05 09:22:22;;;;;;;5.40;2.50;;;;;;;22.69;68.82;100736.78;20935860;28;20059;-72
2021/06/05 09:32:53;;;;;;;4.38;1.83;;;;;;;22.99;67.46;100738.25;20910110;28;20045;-72
2021/06/05 09:43:10;;;;;;;5.85;2.70;;;;;;;22.77;67.97;100734.22;20969043;28;20045;-72
2021/06/05 09:53:13;;;;;;;4.15;2.35;;;;;;;22.64;67.76;100728.41;20984263;28;20048;-72
2021/06/05 10:03:15;;;;;;;4.90;1.80;;;;;;;22.43;68.58;100731.38;20847968;28;20066;-72
2021/06/05 10:13:23;;;;;;;4.85;2.13;;;;;;;23.14;64.63;100733.19;20571326;28;20057;-72
2021/06/05 10:23:47;;;;;;;5.13;1.90;;;;;;;23.29;65.02;100732.47;20570276;28;20046;-72
2021/06/05 10:34:02;;;;;;;4.10;2.13;;;;;;;23.83;63.46;100728.59;20718297;28;20512;-72
2021/06/05 10:44:05;;;;;;;8.57;3.58;;;;;;;23.62;66.54;100730.84;20988865;28;20048;-72
2021/06/05 10:54:15;;;;;;;6.97;2.57;;;;;;;24.18;65.05;100724.91;20978538;28;20053;-73
2021/06/05 11:04:31;;;;;;;5.13;2.28;;;;;;;24.15;61.94;100719.88;20808307;28;20054;-72
2021/06/05 11:14:36;;;;;;;3.65;1.77;;;;;;;24.92;60.36;100701.78;20566856;28;20255;-71
2021/06/05 11:24:41;;;;;;;2.72;1.65;;;;;;;25.05;60.49;100694.06;20558719;28;20054;-71
2021/06/05 11:34:43;;;;;;;4.80;1.60;;;;;;;24.24;63.20;100699.34;20761421;28;20056;-72
2021/06/05 11:44:48;;;;;;;5.43;2.10;;;;;;;24.09;63.75;100703.63;20985259;28;20101;-71
2021/06/05 11:54:50;;;;;;;4.32;2.00;;;;;;;23.01;67.02;100715.72;20977721;28;20427;-72
2021/06/05 12:04:57;;;;;;;5.00;2.33;;;;;;;22.32;70.42;100720.91;20780956;28;20042;-71
2021/06/05 12:15:15;;;;;;;1.85;1.10;;;;;;;20.85;78.35;100729.66;20577892;28;20101;-71
2021/06/05 12:25:38;;;;;;;2.83;1.08;;;;;;;20.43;86.89;100729.91;20572497;28;20055;-73
2021/06/05 12:35:47;;;;;;;2.58;1.00;;;;;;;20.67;88.93;100726.03;20813869;28;20097;-73
2021/06/05 12:45:49;;;;;;;4.63;1.45;;;;;;;20.66;88.47;100733.16;20998469;28;20394;-72
2021/06/05 12:55:57;;;;;;;1.80;0.95;;;;;;;20.31;90.86;100738.16;20988809;28;20472;-70
2021/06/05 13:06:20;;;;;;;1.77;1.00;;;;;;;20.11;93.33;100739.91;20745996;28;20408;-71
2021/06/05 13:16:24;;;;;;;3.83;1.08;;;;;;;20.33;94.45;100725.56;20573659;28;20401;-71
2021/06/05 13:26:29;;;;;;;3.08;1.30;;;;;;;21.07;90.22;100729.38;20656396;28;20064;-74
2021/06/05 13:36:30;;;;;;;4.30;1.50;;;;;;;21.45;93.22;100717.81;20913373;28;20079;-72
2021/06/05 13:46:33;;;;;;;3.65;1.40;;;;;;;21.60;89.59;100699.50;20913946;28;20505;-71
2021/06/05 13:56:37;;;;;;;3.83;1.65;;;;;;;21.19;91.37;100695.44;20937208;28;20122;-71
2021/06/05 14:06:39;;;;;;;5.75;1.60;;;;;;;21.33;89.13;100695.81;20914401;28;20057;-72
2021/06/05 14:16:41;;;;;;;2.10;1.20;;;;;;;21.79;88.51;100691.44;20927578;28;20049;-72
2021/06/05 14:26:43;;;;;;;2.15;0.98;;;;;;;22.36;81.75;100687.59;20963107;28;20391;-74
2021/06/05 14:36:45;;;;;;;2.03;1.08;;;;;;;23.07;76.25;100690.22;20644663;28;20161;-73
2021/06/05 14:46:46;;;;;;;1.50;0.77;;;;;;;22.77;71.23;100680.00;20490118;28;20477;-73
2021/06/05 14:56:49;;;;;;;1.83;0.80;;;;;;;22.94;72.48;100671.13;20548676;28;20050;-73
2021/06/05 15:06:52;;;;;;;2.72;1.17;;;;;;;22.97;71.46;100668.97;20853746;28;20053;-72
2021/06/05 15:16:54;;;;;;;3.22;1.00;;;;;;;22.44;72.92;100673.53;20934206;28;20049;-71
2021/06/05 15:26:57;;;;;;;1.90;1.08;;;;;;;22.61;73.42;100653.97;20967378;28;20063;-71
2021/06/05 15:36:59;;;;;;;4.47;0.87;;;;;;;23.02;70.29;100663.16;20698354;28;20134;-70
2021/06/05 15:47:05;;;;;;;2.28;0.70;;;;;;;23.44;69.18;100661.41;20569938;28;20054;-71
2021/06/05 15:57:08;;;;;;;3.97;1.02;;;;;;;22.98;68.75;100659.13;20568431;28;20137;-70
2021/06/05 16:07:10;;;;;;;2.10;1.15;;;;;;;22.81;71.71;100652.84;20566648;28;20101;-71
2021/06/05 16:17:11;;;;;;;3.90;1.70;;;;;;;22.41;73.94;100647.97;20568198;28;20116;-70
2021/06/05 16:27:13;;;;;;;2.53;1.30;;;;;;;22.21;74.81;100645.59;20567351;28;20476;-70
2021/06/05 16:37:15;;;;;;;2.53;1.13;;;;;;;22.23;75.42;100655.16;20524589;28;20043;-70
2021/06/05 16:47:17;;;;;;;1.00;0.50;;;;;;;22.67;70.19;100650.69;20486599;28;20047;-70
2021/06/05 16:57:18;;;;;;;3.03;1.00;;;;;;;22.54;71.40;100640.44;20495215;28;20047;-70
2021/06/05 17:07:20;;;;;;;2.60;1.25;;;;;;;23.53;69.16;100640.09;20801678;28;20053;-70
2021/06/05 17:17:21;;;;;;;1.50;1.10;;;;;;;22.24;73.15;100658.66;20916784;28;20165;-71
2021/06/05 17:27:23;;;;;;;3.30;1.40;;;;;;;21.47;77.89;100659.06;20916146;28;20537;-70
2021/06/05 17:37:25;;;;;;;3.22;1.90;;;;;;;21.02;80.75;100675.72;20914448;28;20048;-70
2021/06/05 17:47:27;;;;;;;4.97;3.40;;;;;;;20.58;79.92;100689.59;20914962;28;20041;-70
2021/06/05 17:57:28;;;;;;;6.03;4.30;;;;;;;20.15;83.22;100689.97;20962942;28;20052;-71
2021/06/05 18:07:29;;;;;;;7.18;4.85;;;;;;;19.98;86.49;100712.72;20678150;28;20104;-70
2021/06/05 18:17:31;;;;;;;9.48;6.50;;;;;;;19.71;93.49;100715.97;20493264;28;20047;-71
2021/06/05 18:27:36;;;;;;;11.02;8.77;;;;;;;19.09;100.00;100727.53;20499151;28;20075;-71
2021/06/05 18:37:38;;;;;;;10.80;8.67;;;;;;;18.79;100.00;100738.06;20805678;28;20441;-71
2021/06/05 18:47:40;;;;;;;14.18;10.27;;;;;;;18.69;100.00;100735.28;20907494;28;20071;-72
2021/06/05 18:57:43;;;;;;;15.57;12.82;;;;;;;18.38;100.00;100749.38;20946089;28;20126;-73
2021/06/05 19:07:46;;;;;;;19.90;15.23;;;;;;;18.27;100.00;100750.22;20991837;28;20044;-71
2021/06/05 19:17:48;;;;;;;20.58;15.93;;;;;;;18.11;100.00;100747.13;20925689;28;20045;-73
2021/06/05 19:27:50;;;;;;;22.77;17.15;;;;;;;17.88;100.00;100735.69;20974506;28;20482;-72
2021/06/05 19:37:52;;;;;;;25.63;16.70;;;;;;;17.74;100.00;100754.47;20655878;28;20058;-71
2021/06/05 19:47:56;;;;;;;25.00;18.33;;;;;;;17.87;100.00;100784.34;20565815;28;20058;-71
2021/06/05 19:57:58;;;;;;;24.17;17.27;;;;;;;17.89;100.00;100803.59;20556473;28;20046;-71
2021/06/05 20:08:01;;;;;;;27.92;17.55;;;;;;;17.92;100.00;100816.63;20897423;28;20048;-71
2021/06/05 20:18:04;;;;;;;20.95;15.18;;;;;;;17.70;100.00;100828.97;20923138;28;20057;-71
2021/06/05 20:28:07;;;;;;;21.73;16.20;;;;;;;17.63;100.00;100841.84;20976833;28;20390;-71
2021/06/05 20:38:09;;;;;;;20.95;16.10;;;;;;;17.54;100.00;100837.22;20656463;28;20393;-69
2021/06/05 20:48:11;;;;;;;23.13;16.30;;;;;;;17.47;100.00;100836.84;20577107;28;20104;-69
2021/06/05 20:58:15;;;;;;;26.15;17.95;;;;;;;17.42;100.00;100840.81;20568333;28;20050;-69
2021/06/05 21:08:17;;;;;;;28.07;18.37;;;;;;;17.26;100.00;100838.47;20922840;28;20048;-69
2021/06/05 21:18:18;;;;;;;31.40;20.63;;;;;;;17.23;100.00;100849.28;20998854;28;20087;-69
2021/06/05 21:28:21;;;;;;;30.27;20.15;;;;;;;17.07;100.00;100841.63;20914983;28;20124;-69
2021/06/05 21:38:27;;;;;;;29.30;19.60;;;;;;;16.96;100.00;100840.75;20912508;28;20049;-69
2021/06/05 21:48:29;;;;;;;30.38;20.10;;;;;;;16.90;100.00;100857.91;20914073;28;20495;-68
2021/06/05 21:58:31;;;;;;;29.23;19.45;;;;;;;16.94;100.00;100856.72;20977971;28;20087;-68
2021/06/05 22:08:37;;;;;;;27.67;19.67;;;;;;;16.91;100.00;100849.03;20958588;28;20499;-67
2021/06/05 22:18:40;;;;;;;30.77;21.25;;;;;;;16.94;100.00;100846.16;20986435;28;20052;-68
2021/06/05 22:28:42;;;;;;;25.40;17.58;;;;;;;17.00;100.00;100848.34;20985683;28;20048;-67
2021/06/05 22:38:44;;;;;;;26.55;17.98;;;;;;;17.05;100.00;100846.22;20627036;28;20089;-68
2021/06/05 22:48:47;;;;;;;25.08;17.25;;;;;;;17.04;100.00;100848.97;20568407;28;20508;-68
2021/06/05 22:58:49;;;;;;;22.60;16.27;;;;;;;16.97;100.00;100853.84;20559535;28;20050;-69
2021/06/05 23:08:52;;;;;;;23.20;16.55;;;;;;;16.83;100.00;100855.81;20934176;28;20045;-68
2021/06/05 23:18:54;;;;;;;24.63;17.23;;;;;;;16.77;100.00;100850.97;20930147;28;20060;-68
2021/06/05 23:28:56;;;;;;;24.55;17.20;;;;;;;16.63;100.00;100857.25;20978424;28;20041;-68
2021/06/05 23:38:58;;;;;;;23.58;17.58;;;;;;;16.54;100.00;100861.38;20610837;28;20046;-68
2021/06/05 23:49:01;;;;;;;29.15;18.08;;;;;;;16.41;100.00;100860.56;20565373;28;20120;-68
2021/06/05 23:59:04;;;;;;;25.98;17.58;;;;;;;16.35;100.00;100849.59;20556704;28;20421;-67
